sensor_id;sensor_type;location;lat;lon;timestamp;P1;durP1;ratioP1;P2;durP2;ratioP2
10699;SDS011;5401;41.986;21.452;2022-08-21T00:01:34;12.17;;;9.17;;
10699;SDS011;5401;41.986;21.452;2022-08-21T00:04:04;13.23;;;8.67;;
10699;SDS011;5401;41.986;21.452;2022-08-21T00:06:33;15.90;;;9.40;;
10699;SDS011;5401;41.986;21.452;2022-08-21T00:09:02;14.73;;;8.83;;
10699;SDS011;5401;41.986;21.452;2022-08-21T00:11:31;15.93;;;10.17;;
10699;SDS011;5401;41.986;21.452;2022-08-21T00:13:59;19.03;;;9.00;;
10699;SDS011;5401;41.986;21.452;2022-08-21T00:16:27;13.43;;;8.37;;
10699;SDS011;5401;41.986;21.452;2022-08-21T00:18:54;12.00;;;8.87;;
10699;SDS011;5401;41.986;21.452;2022-08-21T00:21:22;15.07;;;9.10;;
10699;SDS011;5401;41.986;21.452;2022-08-21T00:23:52;13.63;;;8.77;;
10699;SDS011;5401;41.986;21.452;2022-08-21T00:26:19;16.30;;;10.90;;
10699;SDS011;5401;41.986;21.452;2022-08-21T00:28:47;16.40;;;8.93;;
10699;SDS011;5401;41.986;21.452;2022-08-21T00:31:15;12.73;;;8.20;;
10699;SDS011;5401;41.986;21.452;2022-08-21T00:33:44;13.17;;;7.67;;
10699;SDS011;5401;41.986;21.452;2022-08-21T00:36:12;17.43;;;9.03;;
10699;SDS011;5401;41.986;21.452;2022-08-21T00:38:40;13.50;;;9.10;;
10699;SDS011;5401;41.986;21.452;2022-08-21T00:41:10;14.20;;;8.93;;
10699;SDS011;5401;41.986;21.452;2022-08-21T00:43:39;13.90;;;8.30;;
10699;SDS011;5401;41.986;21.452;2022-08-21T00:46:07;14.10;;;9.83;;
10699;SDS011;5401;41.986;21.452;2022-08-21T00:48:35;14.80;;;9.33;;
10699;SDS011;5401;41.986;21.452;2022-08-21T00:51:04;12.50;;;9.30;;
10699;SDS011;5401;41.986;21.452;2022-08-21T00:53:34;11.70;;;9.13;;
10699;SDS011;5401;41.986;21.452;2022-08-21T00:56:05;15.87;;;11.17;;
10699;SDS011;5401;41.986;21.452;2022-08-21T00:58:37;16.87;;;10.83;;
10699;SDS011;5401;41.986;21.452;2022-08-21T01:01:07;18.67;;;11.87;;
10699;SDS011;5401;41.986;21.452;2022-08-21T01:03:35;18.97;;;11.20;;
10699;SDS011;5401;41.986;21.452;2022-08-21T01:06:03;16.23;;;11.33;;
10699;SDS011;5401;41.986;21.452;2022-08-21T01:08:33;22.53;;;12.07;;
10699;SDS011;5401;41.986;21.452;2022-08-21T01:11:01;15.60;;;10.93;;
10699;SDS011;5401;41.986;21.452;2022-08-21T01:13:31;15.17;;;10.43;;
10699;SDS011;5401;41.986;21.452;2022-08-21T01:16:08;14.53;;;10.90;;
10699;SDS011;5401;41.986;21.452;2022-08-21T01:18:36;21.07;;;9.33;;
10699;SDS011;5401;41.986;21.452;2022-08-21T01:21:07;19.03;;;10.30;;
10699;SDS011;5401;41.986;21.452;2022-08-21T01:23:37;18.83;;;9.83;;
10699;SDS011;5401;41.986;21.452;2022-08-21T01:26:06;13.37;;;9.90;;
10699;SDS011;5401;41.986;21.452;2022-08-21T01:28:34;17.50;;;9.93;;
10699;SDS011;5401;41.986;21.452;2022-08-21T01:31:07;18.90;;;11.63;;
10699;SDS011;5401;41.986;21.452;2022-08-21T01:33:37;16.23;;;9.40;;
10699;SDS011;5401;41.986;21.452;2022-08-21T01:36:05;13.23;;;9.47;;
10699;SDS011;5401;41.986;21.452;2022-08-21T01:38:34;14.43;;;10.37;;
10699;SDS011;5401;41.986;21.452;2022-08-21T01:41:02;17.50;;;10.03;;
10699;SDS011;5401;41.986;21.452;2022-08-21T01:43:29;12.80;;;8.23;;
10699;SDS011;5401;41.986;21.452;2022-08-21T01:45:58;11.10;;;7.67;;
10699;SDS011;5401;41.986;21.452;2022-08-21T01:48:27;12.07;;;9.07;;
10699;SDS011;5401;41.986;21.452;2022-08-21T01:50:54;12.37;;;7.60;;
10699;SDS011;5401;41.986;21.452;2022-08-21T01:53:24;10.07;;;6.70;;
10699;SDS011;5401;41.986;21.452;2022-08-21T01:55:51;14.57;;;7.83;;
10699;SDS011;5401;41.986;21.452;2022-08-21T01:58:19;13.33;;;8.13;;
10699;SDS011;5401;41.986;21.452;2022-08-21T02:00:47;9.13;;;7.07;;
10699;SDS011;5401;41.986;21.452;2022-08-21T02:03:15;9.80;;;7.70;;
10699;SDS011;5401;41.986;21.452;2022-08-21T02:05:42;16.97;;;8.27;;
10699;SDS011;5401;41.986;21.452;2022-08-21T02:08:10;15.53;;;7.57;;
10699;SDS011;5401;41.986;21.452;2022-08-21T02:10:40;8.60;;;6.63;;
10699;SDS011;5401;41.986;21.452;2022-08-21T02:13:08;12.27;;;6.63;;
10699;SDS011;5401;41.986;21.452;2022-08-21T02:15:35;14.10;;;6.90;;
10699;SDS011;5401;41.986;21.452;2022-08-21T02:18:04;10.57;;;6.73;;
10699;SDS011;5401;41.986;21.452;2022-08-21T02:20:34;15.07;;;7.83;;
10699;SDS011;5401;41.986;21.452;2022-08-21T02:23:04;11.10;;;6.90;;
10699;SDS011;5401;41.986;21.452;2022-08-21T02:25:32;12.10;;;7.10;;
10699;SDS011;5401;41.986;21.452;2022-08-21T02:28:04;13.47;;;7.67;;
10699;SDS011;5401;41.986;21.452;2022-08-21T02:30:35;12.77;;;7.77;;
10699;SDS011;5401;41.986;21.452;2022-08-21T02:33:06;10.00;;;7.47;;
10699;SDS011;5401;41.986;21.452;2022-08-21T02:35:35;10.53;;;8.87;;
10699;SDS011;5401;41.986;21.452;2022-08-21T02:38:04;18.70;;;9.43;;
10699;SDS011;5401;41.986;21.452;2022-08-21T02:40:34;14.77;;;8.40;;
10699;SDS011;5401;41.986;21.452;2022-08-21T02:43:05;20.37;;;9.00;;
10699;SDS011;5401;41.986;21.452;2022-08-21T02:45:34;13.13;;;9.47;;
10699;SDS011;5401;41.986;21.452;2022-08-21T02:48:03;16.43;;;11.10;;
10699;SDS011;5401;41.986;21.452;2022-08-21T02:50:33;22.97;;;13.23;;
10699;SDS011;5401;41.986;21.452;2022-08-21T02:53:02;17.43;;;11.80;;
10699;SDS011;5401;41.986;21.452;2022-08-21T02:55:31;16.90;;;11.43;;
10699;SDS011;5401;41.986;21.452;2022-08-21T02:58:01;25.60;;;12.67;;
10699;SDS011;5401;41.986;21.452;2022-08-21T03:00:32;25.87;;;15.73;;
10699;SDS011;5401;41.986;21.452;2022-08-21T03:03:00;27.43;;;14.90;;
10699;SDS011;5401;41.986;21.452;2022-08-21T03:05:29;27.23;;;15.50;;
10699;SDS011;5401;41.986;21.452;2022-08-21T03:07:58;26.30;;;16.77;;
10699;SDS011;5401;41.986;21.452;2022-08-21T03:10:26;24.73;;;16.43;;
10699;SDS011;5401;41.986;21.452;2022-08-21T03:12:54;23.70;;;18.13;;
10699;SDS011;5401;41.986;21.452;2022-08-21T03:15:22;24.60;;;15.50;;
10699;SDS011;5401;41.986;21.452;2022-08-21T03:17:52;27.60;;;16.07;;
10699;SDS011;5401;41.986;21.452;2022-08-21T03:20:21;23.80;;;16.07;;
10699;SDS011;5401;41.986;21.452;2022-08-21T03:22:50;19.67;;;14.50;;
10699;SDS011;5401;41.986;21.452;2022-08-21T03:25:18;26.13;;;15.33;;
10699;SDS011;5401;41.986;21.452;2022-08-21T03:27:46;20.67;;;14.80;;
10699;SDS011;5401;41.986;21.452;2022-08-21T03:30:14;18.43;;;13.53;;
10699;SDS011;5401;41.986;21.452;2022-08-21T03:32:43;25.37;;;13.23;;
10699;SDS011;5401;41.986;21.452;2022-08-21T03:35:14;22.73;;;13.03;;
10699;SDS011;5401;41.986;21.452;2022-08-21T03:37:42;15.63;;;11.50;;
10699;SDS011;5401;41.986;21.452;2022-08-21T03:40:10;16.87;;;10.97;;
10699;SDS011;5401;41.986;21.452;2022-08-21T03:42:39;12.73;;;10.47;;
10699;SDS011;5401;41.986;21.452;2022-08-21T03:45:07;16.23;;;10.30;;
10699;SDS011;5401;41.986;21.452;2022-08-21T03:47:35;16.53;;;11.20;;
10699;SDS011;5401;41.986;21.452;2022-08-21T03:50:03;16.17;;;11.10;;
10699;SDS011;5401;41.986;21.452;2022-08-21T03:52:34;20.40;;;11.60;;
10699;SDS011;5401;41.986;21.452;2022-08-21T03:55:02;21.40;;;11.23;;
10699;SDS011;5401;41.986;21.452;2022-08-21T03:57:30;19.60;;;12.27;;
10699;SDS011;5401;41.986;21.452;2022-08-21T03:59:58;14.67;;;11.57;;
10699;SDS011;5401;41.986;21.452;2022-08-21T04:02:25;13.60;;;10.03;;
10699;SDS011;5401;41.986;21.452;2022-08-21T04:04:53;16.40;;;10.93;;
10699;SDS011;5401;41.986;21.452;2022-08-21T04:07:20;19.57;;;15.53;;
10699;SDS011;5401;41.986;21.452;2022-08-21T04:09:49;16.10;;;10.53;;
10699;SDS011;5401;41.986;21.452;2022-08-21T04:12:17;10.87;;;8.73;;
10699;SDS011;5401;41.986;21.452;2022-08-21T04:14:45;12.63;;;9.30;;
10699;SDS011;5401;41.986;21.452;2022-08-21T04:17:12;12.27;;;8.57;;
10699;SDS011;5401;41.986;21.452;2022-08-21T04:19:40;11.23;;;9.17;;
10699;SDS011;5401;41.986;21.452;2022-08-21T04:22:07;14.77;;;9.87;;
10699;SDS011;5401;41.986;21.452;2022-08-21T04:24:35;12.60;;;9.67;;
10699;SDS011;5401;41.986;21.452;2022-08-21T04:27:04;16.17;;;10.40;;
10699;SDS011;5401;41.986;21.452;2022-08-21T04:29:32;15.30;;;10.20;;
10699;SDS011;5401;41.986;21.452;2022-08-21T04:31:59;16.13;;;9.70;;
10699;SDS011;5401;41.986;21.452;2022-08-21T04:34:27;16.17;;;11.97;;
10699;SDS011;5401;41.986;21.452;2022-08-21T04:36:54;14.33;;;9.97;;
10699;SDS011;5401;41.986;21.452;2022-08-21T04:39:22;17.37;;;12.10;;
10699;SDS011;5401;41.986;21.452;2022-08-21T04:41:50;17.40;;;12.73;;
10699;SDS011;5401;41.986;21.452;2022-08-21T04:44:19;17.67;;;13.40;;
10699;SDS011;5401;41.986;21.452;2022-08-21T04:46:46;20.93;;;13.13;;
10699;SDS011;5401;41.986;21.452;2022-08-21T04:49:14;21.33;;;13.73;;
10699;SDS011;5401;41.986;21.452;2022-08-21T04:51:41;23.27;;;12.80;;
10699;SDS011;5401;41.986;21.452;2022-08-21T04:54:10;19.27;;;13.17;;
10699;SDS011;5401;41.986;21.452;2022-08-21T04:56:44;21.90;;;13.67;;
10699;SDS011;5401;41.986;21.452;2022-08-21T04:59:21;16.20;;;12.00;;
10699;SDS011;5401;41.986;21.452;2022-08-21T05:01:51;13.70;;;12.30;;
10699;SDS011;5401;41.986;21.452;2022-08-21T05:04:22;15.07;;;12.57;;
10699;SDS011;5401;41.986;21.452;2022-08-21T05:06:53;19.37;;;14.90;;
10699;SDS011;5401;41.986;21.452;2022-08-21T05:09:24;20.93;;;15.70;;
10699;SDS011;5401;41.986;21.452;2022-08-21T05:11:53;18.00;;;14.00;;
10699;SDS011;5401;41.986;21.452;2022-08-21T05:14:23;24.60;;;18.03;;
10699;SDS011;5401;41.986;21.452;2022-08-21T05:16:52;33.00;;;17.17;;
10699;SDS011;5401;41.986;21.452;2022-08-21T05:19:20;22.77;;;16.47;;
10699;SDS011;5401;41.986;21.452;2022-08-21T05:21:49;27.20;;;16.27;;
10699;SDS011;5401;41.986;21.452;2022-08-21T05:24:16;31.60;;;17.43;;
10699;SDS011;5401;41.986;21.452;2022-08-21T05:26:44;22.10;;;17.97;;
10699;SDS011;5401;41.986;21.452;2022-08-21T05:29:13;19.83;;;17.03;;
10699;SDS011;5401;41.986;21.452;2022-08-21T05:31:42;27.03;;;18.90;;
10699;SDS011;5401;41.986;21.452;2022-08-21T05:34:09;23.37;;;17.03;;
10699;SDS011;5401;41.986;21.452;2022-08-21T05:36:37;26.57;;;17.70;;
10699;SDS011;5401;41.986;21.452;2022-08-21T05:39:04;29.97;;;19.97;;
10699;SDS011;5401;41.986;21.452;2022-08-21T05:41:32;21.70;;;17.30;;
10699;SDS011;5401;41.986;21.452;2022-08-21T05:44:00;19.30;;;16.13;;
10699;SDS011;5401;41.986;21.452;2022-08-21T05:46:27;24.80;;;15.33;;
10699;SDS011;5401;41.986;21.452;2022-08-21T05:48:56;20.53;;;13.73;;
10699;SDS011;5401;41.986;21.452;2022-08-21T05:51:24;23.53;;;13.50;;
10699;SDS011;5401;41.986;21.452;2022-08-21T05:53:51;28.83;;;14.20;;
10699;SDS011;5401;41.986;21.452;2022-08-21T05:56:19;28.73;;;15.00;;
10699;SDS011;5401;41.986;21.452;2022-08-21T05:58:47;17.13;;;13.60;;
10699;SDS011;5401;41.986;21.452;2022-08-21T06:01:14;22.60;;;13.67;;
10699;SDS011;5401;41.986;21.452;2022-08-21T06:03:42;27.87;;;16.07;;
10699;SDS011;5401;41.986;21.452;2022-08-21T06:06:11;25.13;;;15.57;;
10699;SDS011;5401;41.986;21.452;2022-08-21T06:08:38;23.57;;;14.33;;
10699;SDS011;5401;41.986;21.452;2022-08-21T06:11:06;20.80;;;13.87;;
10699;SDS011;5401;41.986;21.452;2022-08-21T06:13:34;16.37;;;13.83;;
10699;SDS011;5401;41.986;21.452;2022-08-21T06:16:04;20.43;;;14.33;;
10699;SDS011;5401;41.986;21.452;2022-08-21T06:18:34;20.80;;;13.97;;
10699;SDS011;5401;41.986;21.452;2022-08-21T06:21:03;23.67;;;14.53;;
10699;SDS011;5401;41.986;21.452;2022-08-21T06:23:32;26.33;;;17.60;;
10699;SDS011;5401;41.986;21.452;2022-08-21T06:26:00;25.73;;;14.07;;
10699;SDS011;5401;41.986;21.452;2022-08-21T06:28:28;19.67;;;13.43;;
10699;SDS011;5401;41.986;21.452;2022-08-21T06:30:56;32.67;;;18.63;;
10699;SDS011;5401;41.986;21.452;2022-08-21T06:33:23;19.43;;;13.47;;
10699;SDS011;5401;41.986;21.452;2022-08-21T06:35:51;23.80;;;14.87;;
10699;SDS011;5401;41.986;21.452;2022-08-21T06:38:18;30.97;;;16.97;;
10699;SDS011;5401;41.986;21.452;2022-08-21T06:40:47;18.93;;;13.97;;
10699;SDS011;5401;41.986;21.452;2022-08-21T06:43:16;23.67;;;15.37;;
10699;SDS011;5401;41.986;21.452;2022-08-21T06:45:44;20.87;;;13.93;;
10699;SDS011;5401;41.986;21.452;2022-08-21T06:48:12;23.07;;;14.33;;
10699;SDS011;5401;41.986;21.452;2022-08-21T06:50:39;17.83;;;11.17;;
10699;SDS011;5401;41.986;21.452;2022-08-21T06:53:08;26.33;;;14.47;;
10699;SDS011;5401;41.986;21.452;2022-08-21T06:55:38;28.70;;;18.10;;
10699;SDS011;5401;41.986;21.452;2022-08-21T06:58:09;22.40;;;13.17;;
10699;SDS011;5401;41.986;21.452;2022-08-21T07:00:38;20.37;;;12.13;;
10699;SDS011;5401;41.986;21.452;2022-08-21T07:03:06;35.03;;;15.63;;
10699;SDS011;5401;41.986;21.452;2022-08-21T07:05:34;22.87;;;13.87;;
10699;SDS011;5401;41.986;21.452;2022-08-21T07:08:02;18.60;;;14.67;;
10699;SDS011;5401;41.986;21.452;2022-08-21T07:10:30;37.07;;;17.90;;
10699;SDS011;5401;41.986;21.452;2022-08-21T07:12:57;28.03;;;15.53;;
10699;SDS011;5401;41.986;21.452;2022-08-21T07:15:26;19.07;;;12.27;;
10699;SDS011;5401;41.986;21.452;2022-08-21T07:17:54;24.07;;;14.60;;
10699;SDS011;5401;41.986;21.452;2022-08-21T07:20:22;17.60;;;13.20;;
10699;SDS011;5401;41.986;21.452;2022-08-21T07:22:50;22.47;;;12.70;;
10699;SDS011;5401;41.986;21.452;2022-08-21T07:25:18;22.40;;;14.80;;
10699;SDS011;5401;41.986;21.452;2022-08-21T07:27:45;21.77;;;15.30;;
10699;SDS011;5401;41.986;21.452;2022-08-21T07:30:13;22.47;;;15.63;;
10699;SDS011;5401;41.986;21.452;2022-08-21T07:32:42;17.53;;;12.73;;
10699;SDS011;5401;41.986;21.452;2022-08-21T07:35:14;20.30;;;12.43;;
10699;SDS011;5401;41.986;21.452;2022-08-21T07:37:42;17.00;;;12.70;;
10699;SDS011;5401;41.986;21.452;2022-08-21T07:40:10;20.27;;;15.10;;
10699;SDS011;5401;41.986;21.452;2022-08-21T07:42:41;19.27;;;12.97;;
10699;SDS011;5401;41.986;21.452;2022-08-21T07:45:09;21.33;;;15.90;;
10699;SDS011;5401;41.986;21.452;2022-08-21T07:47:37;17.20;;;13.17;;
10699;SDS011;5401;41.986;21.452;2022-08-21T07:50:06;20.17;;;14.93;;
10699;SDS011;5401;41.986;21.452;2022-08-21T07:52:34;13.73;;;11.20;;
10699;SDS011;5401;41.986;21.452;2022-08-21T07:55:02;26.47;;;12.80;;
10699;SDS011;5401;41.986;21.452;2022-08-21T07:57:31;20.63;;;15.00;;
10699;SDS011;5401;41.986;21.452;2022-08-21T07:59:58;16.03;;;10.67;;
10699;SDS011;5401;41.986;21.452;2022-08-21T08:02:26;18.83;;;12.37;;
10699;SDS011;5401;41.986;21.452;2022-08-21T08:04:58;14.90;;;12.80;;
10699;SDS011;5401;41.986;21.452;2022-08-21T08:07:27;61.23;;;56.40;;
10699;SDS011;5401;41.986;21.452;2022-08-21T08:09:55;54.17;;;49.90;;
10699;SDS011;5401;41.986;21.452;2022-08-21T08:12:24;53.40;;;49.50;;
10699;SDS011;5401;41.986;21.452;2022-08-21T08:14:56;52.80;;;48.83;;
10699;SDS011;5401;41.986;21.452;2022-08-21T08:17:24;47.80;;;44.13;;
10699;SDS011;5401;41.986;21.452;2022-08-21T08:19:58;49.70;;;46.03;;
10699;SDS011;5401;41.986;21.452;2022-08-21T08:22:28;47.97;;;44.33;;
10699;SDS011;5401;41.986;21.452;2022-08-21T08:24:55;47.73;;;43.90;;
10699;SDS011;5401;41.986;21.452;2022-08-21T08:27:23;47.33;;;43.47;;
10699;SDS011;5401;41.986;21.452;2022-08-21T08:29:51;52.33;;;48.67;;
10699;SDS011;5401;41.986;21.452;2022-08-21T08:32:19;41.97;;;39.03;;
10699;SDS011;5401;41.986;21.452;2022-08-21T08:34:47;42.63;;;39.53;;
10699;SDS011;5401;41.986;21.452;2022-08-21T08:37:17;45.73;;;40.73;;
10699;SDS011;5401;41.986;21.452;2022-08-21T08:39:47;42.80;;;39.63;;
10699;SDS011;5401;41.986;21.452;2022-08-21T08:42:16;43.93;;;40.90;;
10699;SDS011;5401;41.986;21.452;2022-08-21T08:44:47;44.43;;;41.00;;
10699;SDS011;5401;41.986;21.452;2022-08-21T08:47:16;49.50;;;45.80;;
10699;SDS011;5401;41.986;21.452;2022-08-21T08:49:47;45.03;;;41.53;;
10699;SDS011;5401;41.986;21.452;2022-08-21T08:52:22;47.23;;;43.93;;
10699;SDS011;5401;41.986;21.452;2022-08-21T08:55:00;46.73;;;43.57;;
10699;SDS011;5401;41.986;21.452;2022-08-21T08:57:32;46.83;;;43.37;;
10699;SDS011;5401;41.986;21.452;2022-08-21T09:00:00;47.13;;;43.60;;
10699;SDS011;5401;41.986;21.452;2022-08-21T09:02:32;46.73;;;43.53;;
10699;SDS011;5401;41.986;21.452;2022-08-21T09:05:00;46.00;;;42.43;;
10699;SDS011;5401;41.986;21.452;2022-08-21T09:07:30;42.20;;;38.90;;
10699;SDS011;5401;41.986;21.452;2022-08-21T09:10:16;46.90;;;43.17;;
10699;SDS011;5401;41.986;21.452;2022-08-21T09:12:49;44.57;;;41.20;;
10699;SDS011;5401;41.986;21.452;2022-08-21T09:15:25;44.37;;;40.57;;
10699;SDS011;5401;41.986;21.452;2022-08-21T09:18:15;42.60;;;39.73;;
10699;SDS011;5401;41.986;21.452;2022-08-21T09:20:55;44.00;;;40.83;;
10699;SDS011;5401;41.986;21.452;2022-08-21T09:23:36;42.23;;;39.40;;
10699;SDS011;5401;41.986;21.452;2022-08-21T09:26:15;43.70;;;40.60;;
10699;SDS011;5401;41.986;21.452;2022-08-21T09:28:46;41.20;;;38.47;;
10699;SDS011;5401;41.986;21.452;2022-08-21T09:31:22;39.10;;;36.03;;
10699;SDS011;5401;41.986;21.452;2022-08-21T09:33:59;42.77;;;39.67;;
10699;SDS011;5401;41.986;21.452;2022-08-21T09:36:31;42.73;;;40.07;;
10699;SDS011;5401;41.986;21.452;2022-08-21T09:39:04;41.03;;;38.23;;
10699;SDS011;5401;41.986;21.452;2022-08-21T09:41:34;43.00;;;40.50;;
10699;SDS011;5401;41.986;21.452;2022-08-21T09:44:04;45.93;;;43.20;;
10699;SDS011;5401;41.986;21.452;2022-08-21T09:46:33;42.90;;;40.07;;
10699;SDS011;5401;41.986;21.452;2022-08-21T09:49:02;43.63;;;40.83;;
10699;SDS011;5401;41.986;21.452;2022-08-21T09:51:31;42.43;;;39.37;;
10699;SDS011;5401;41.986;21.452;2022-08-21T09:54:10;40.77;;;38.20;;
10699;SDS011;5401;41.986;21.452;2022-08-21T09:56:53;46.80;;;43.60;;
10699;SDS011;5401;41.986;21.452;2022-08-21T09:59:41;38.97;;;36.17;;
10699;SDS011;5401;41.986;21.452;2022-08-21T10:02:21;44.03;;;41.30;;
10699;SDS011;5401;41.986;21.452;2022-08-21T10:04:53;47.07;;;44.13;;
10699;SDS011;5401;41.986;21.452;2022-08-21T10:07:23;39.67;;;37.13;;
10699;SDS011;5401;41.986;21.452;2022-08-21T10:10:00;40.77;;;38.23;;
10699;SDS011;5401;41.986;21.452;2022-08-21T10:12:37;40.97;;;37.83;;
10699;SDS011;5401;41.986;21.452;2022-08-21T10:15:15;45.87;;;42.87;;
10699;SDS011;5401;41.986;21.452;2022-08-21T10:17:51;38.30;;;35.67;;
10699;SDS011;5401;41.986;21.452;2022-08-21T10:20:29;37.93;;;34.93;;
10699;SDS011;5401;41.986;21.452;2022-08-21T10:23:07;37.60;;;35.20;;
10699;SDS011;5401;41.986;21.452;2022-08-21T10:25:48;38.13;;;35.70;;
10699;SDS011;5401;41.986;21.452;2022-08-21T10:28:25;36.07;;;33.73;;
10699;SDS011;5401;41.986;21.452;2022-08-21T10:31:00;43.70;;;40.70;;
10699;SDS011;5401;41.986;21.452;2022-08-21T10:33:36;37.10;;;34.80;;
10699;SDS011;5401;41.986;21.452;2022-08-21T10:36:13;40.57;;;37.80;;
10699;SDS011;5401;41.986;21.452;2022-08-21T10:38:54;41.67;;;38.50;;
10699;SDS011;5401;41.986;21.452;2022-08-21T10:44:23;38.57;;;35.90;;
10699;SDS011;5401;41.986;21.452;2022-08-21T10:46:59;35.90;;;33.63;;
10699;SDS011;5401;41.986;21.452;2022-08-21T10:49:36;35.03;;;32.67;;
10699;SDS011;5401;41.986;21.452;2022-08-21T10:52:14;35.20;;;32.87;;
10699;SDS011;5401;41.986;21.452;2022-08-21T10:54:56;36.97;;;34.43;;
10699;SDS011;5401;41.986;21.452;2022-08-21T10:57:32;40.80;;;37.97;;
10699;SDS011;5401;41.986;21.452;2022-08-21T11:00:08;41.43;;;38.37;;
10699;SDS011;5401;41.986;21.452;2022-08-21T11:02:39;44.67;;;41.07;;
10699;SDS011;5401;41.986;21.452;2022-08-21T11:05:13;36.70;;;34.37;;
10699;SDS011;5401;41.986;21.452;2022-08-21T11:07:47;43.77;;;40.73;;
10699;SDS011;5401;41.986;21.452;2022-08-21T11:10:19;42.20;;;39.03;;
10699;SDS011;5401;41.986;21.452;2022-08-21T11:12:52;43.17;;;40.57;;
10699;SDS011;5401;41.986;21.452;2022-08-21T11:15:27;43.93;;;40.87;;
10699;SDS011;5401;41.986;21.452;2022-08-21T11:18:03;39.33;;;36.67;;
10699;SDS011;5401;41.986;21.452;2022-08-21T11:20:43;40.00;;;37.30;;
10699;SDS011;5401;41.986;21.452;2022-08-21T11:23:17;40.17;;;37.20;;
10699;SDS011;5401;41.986;21.452;2022-08-21T11:25:52;40.73;;;38.23;;
10699;SDS011;5401;41.986;21.452;2022-08-21T11:28:25;40.00;;;37.40;;
10699;SDS011;5401;41.986;21.452;2022-08-21T11:31:01;35.63;;;33.30;;
10699;SDS011;5401;41.986;21.452;2022-08-21T11:33:47;39.27;;;36.67;;
10699;SDS011;5401;41.986;21.452;2022-08-21T11:36:25;41.03;;;38.27;;
10699;SDS011;5401;41.986;21.452;2022-08-21T11:39:02;40.20;;;37.43;;
10699;SDS011;5401;41.986;21.452;2022-08-21T11:41:40;43.77;;;41.13;;
10699;SDS011;5401;41.986;21.452;2022-08-21T11:44:15;40.60;;;38.20;;
10699;SDS011;5401;41.986;21.452;2022-08-21T11:46:53;37.13;;;34.57;;
10699;SDS011;5401;41.986;21.452;2022-08-21T11:49:31;40.27;;;37.47;;
10699;SDS011;5401;41.986;21.452;2022-08-21T11:52:11;38.40;;;35.80;;
10699;SDS011;5401;41.986;21.452;2022-08-21T11:54:46;39.77;;;37.17;;
10699;SDS011;5401;41.986;21.452;2022-08-21T11:57:17;38.73;;;36.13;;
10699;SDS011;5401;41.986;21.452;2022-08-21T11:59:49;39.30;;;36.50;;
10699;SDS011;5401;41.986;21.452;2022-08-21T12:02:23;42.83;;;40.00;;
10699;SDS011;5401;41.986;21.452;2022-08-21T12:04:55;45.73;;;42.73;;
10699;SDS011;5401;41.986;21.452;2022-08-21T12:07:32;13.13;;;5.77;;
10699;SDS011;5401;41.986;21.452;2022-08-21T12:10:03;7.30;;;5.67;;
10699;SDS011;5401;41.986;21.452;2022-08-21T12:12:34;11.10;;;5.70;;
10699;SDS011;5401;41.986;21.452;2022-08-21T12:15:15;9.60;;;5.10;;
10699;SDS011;5401;41.986;21.452;2022-08-21T12:17:56;11.00;;;5.20;;
10699;SDS011;5401;41.986;21.452;2022-08-21T12:20:32;9.20;;;5.07;;
10699;SDS011;5401;41.986;21.452;2022-08-21T12:23:05;9.97;;;5.20;;
10699;SDS011;5401;41.986;21.452;2022-08-21T12:25:43;10.33;;;5.80;;
10699;SDS011;5401;41.986;21.452;2022-08-21T12:28:14;14.97;;;6.03;;
10699;SDS011;5401;41.986;21.452;2022-08-21T12:30:44;13.97;;;6.10;;
10699;SDS011;5401;41.986;21.452;2022-08-21T12:33:21;9.37;;;6.27;;
10699;SDS011;5401;41.986;21.452;2022-08-21T12:35:53;10.13;;;6.10;;
10699;SDS011;5401;41.986;21.452;2022-08-21T12:38:32;8.13;;;5.90;;
10699;SDS011;5401;41.986;21.452;2022-08-21T12:41:06;10.23;;;5.53;;
10699;SDS011;5401;41.986;21.452;2022-08-21T12:43:40;7.53;;;5.23;;
10699;SDS011;5401;41.986;21.452;2022-08-21T12:46:14;8.93;;;5.43;;
10699;SDS011;5401;41.986;21.452;2022-08-21T12:48:47;8.03;;;4.97;;
10699;SDS011;5401;41.986;21.452;2022-08-21T12:51:18;6.63;;;4.33;;
10699;SDS011;5401;41.986;21.452;2022-08-21T12:53:51;8.10;;;4.43;;
10699;SDS011;5401;41.986;21.452;2022-08-21T12:56:22;10.40;;;5.40;;
10699;SDS011;5401;41.986;21.452;2022-08-21T12:58:51;7.10;;;5.07;;
10699;SDS011;5401;41.986;21.452;2022-08-21T13:01:22;8.97;;;5.13;;
10699;SDS011;5401;41.986;21.452;2022-08-21T13:03:55;8.60;;;4.60;;
10699;SDS011;5401;41.986;21.452;2022-08-21T13:06:25;7.97;;;4.90;;
10699;SDS011;5401;41.986;21.452;2022-08-21T13:08:57;9.63;;;5.80;;
10699;SDS011;5401;41.986;21.452;2022-08-21T13:11:33;8.40;;;5.33;;
10699;SDS011;5401;41.986;21.452;2022-08-21T13:14:01;8.67;;;4.70;;
10699;SDS011;5401;41.986;21.452;2022-08-21T13:16:31;11.70;;;4.57;;
10699;SDS011;5401;41.986;21.452;2022-08-21T13:19:01;8.03;;;4.93;;
10699;SDS011;5401;41.986;21.452;2022-08-21T13:21:32;6.87;;;4.83;;
10699;SDS011;5401;41.986;21.452;2022-08-21T13:24:08;7.80;;;5.67;;
10699;SDS011;5401;41.986;21.452;2022-08-21T13:26:40;9.40;;;5.30;;
10699;SDS011;5401;41.986;21.452;2022-08-21T13:29:09;7.53;;;5.10;;
10699;SDS011;5401;41.986;21.452;2022-08-21T13:31:39;11.87;;;5.40;;
10699;SDS011;5401;41.986;21.452;2022-08-21T13:34:10;12.60;;;4.93;;
10699;SDS011;5401;41.986;21.452;2022-08-21T13:36:39;8.47;;;5.33;;
10699;SDS011;5401;41.986;21.452;2022-08-21T13:39:09;8.67;;;5.23;;
10699;SDS011;5401;41.986;21.452;2022-08-21T13:41:40;7.63;;;5.20;;
10699;SDS011;5401;41.986;21.452;2022-08-21T13:44:14;6.97;;;5.03;;
10699;SDS011;5401;41.986;21.452;2022-08-21T13:46:44;7.77;;;4.80;;
10699;SDS011;5401;41.986;21.452;2022-08-21T13:49:15;10.07;;;5.93;;
10699;SDS011;5401;41.986;21.452;2022-08-21T13:51:44;6.90;;;5.17;;
10699;SDS011;5401;41.986;21.452;2022-08-21T13:54:18;8.03;;;5.07;;
10699;SDS011;5401;41.986;21.452;2022-08-21T13:56:49;9.03;;;5.90;;
10699;SDS011;5401;41.986;21.452;2022-08-21T13:59:24;10.07;;;5.87;;
10699;SDS011;5401;41.986;21.452;2022-08-21T14:01:54;12.40;;;5.97;;
10699;SDS011;5401;41.986;21.452;2022-08-21T14:04:31;8.93;;;6.23;;
10699;SDS011;5401;41.986;21.452;2022-08-21T14:07:02;9.00;;;5.20;;
10699;SDS011;5401;41.986;21.452;2022-08-21T14:09:41;9.33;;;6.20;;
10699;SDS011;5401;41.986;21.452;2022-08-21T14:12:13;8.93;;;5.97;;
10699;SDS011;5401;41.986;21.452;2022-08-21T14:14:43;11.80;;;6.23;;
10699;SDS011;5401;41.986;21.452;2022-08-21T14:17:12;11.67;;;6.10;;
10699;SDS011;5401;41.986;21.452;2022-08-21T14:19:43;8.97;;;6.20;;
10699;SDS011;5401;41.986;21.452;2022-08-21T14:22:23;13.07;;;6.00;;
10699;SDS011;5401;41.986;21.452;2022-08-21T14:25:00;6.53;;;5.87;;
10699;SDS011;5401;41.986;21.452;2022-08-21T14:27:30;6.87;;;5.60;;
10699;SDS011;5401;41.986;21.452;2022-08-21T14:29:59;10.23;;;5.50;;
10699;SDS011;5401;41.986;21.452;2022-08-21T14:32:29;10.60;;;5.80;;
10699;SDS011;5401;41.986;21.452;2022-08-21T14:35:05;10.00;;;5.67;;
10699;SDS011;5401;41.986;21.452;2022-08-21T14:37:33;11.33;;;6.50;;
10699;SDS011;5401;41.986;21.452;2022-08-21T14:40:02;11.43;;;5.93;;
10699;SDS011;5401;41.986;21.452;2022-08-21T14:42:30;8.23;;;6.40;;
10699;SDS011;5401;41.986;21.452;2022-08-21T14:45:00;10.63;;;7.33;;
10699;SDS011;5401;41.986;21.452;2022-08-21T14:47:29;11.77;;;8.43;;
10699;SDS011;5401;41.986;21.452;2022-08-21T14:49:57;9.67;;;7.10;;
10699;SDS011;5401;41.986;21.452;2022-08-21T14:52:26;9.47;;;6.77;;